createdAt,value
2023-08-17T00:00:41.795Z,23.47
2023-08-17T00:02:05.077Z,23.57
2023-08-17T00:03:27.117Z,23.57
2023-08-17T00:04:50.438Z,23.51
2023-08-17T00:06:12.464Z,23.37
2023-08-17T00:07:35.614Z,23.30
2023-08-17T00:08:57.603Z,23.46
2023-08-17T00:10:20.926Z,23.53
2023-08-17T00:11:42.892Z,23.59
2023-08-17T00:13:06.074Z,23.61
2023-08-17T00:14:29.666Z,23.65
2023-08-17T00:15:52.944Z,23.63
2023-08-17T00:17:15.059Z,22.93
2023-08-17T00:18:38.087Z,22.69
2023-08-17T00:20:00.063Z,22.35
2023-08-17T00:21:23.302Z,22.59
2023-08-17T00:22:45.504Z,22.82
2023-08-17T00:24:09.002Z,23.01
2023-08-17T00:25:31.919Z,23.13
2023-08-17T00:26:53.927Z,23.21
2023-08-17T00:28:16.948Z,23.22
2023-08-17T00:29:40.630Z,23.18
2023-08-17T00:31:04.129Z,23.31
2023-08-17T00:32:26.187Z,23.29
2023-08-17T00:33:49.109Z,23.23
2023-08-17T00:35:11.132Z,23.29
2023-08-17T00:36:34.198Z,23.27
2023-08-17T00:37:56.544Z,22.98
2023-08-17T00:39:20.958Z,22.86
2023-08-17T00:40:43.297Z,22.58
2023-08-17T00:42:09.009Z,22.25
2023-08-17T00:43:31.130Z,22.07
2023-08-17T00:44:55.611Z,21.93
2023-08-17T00:46:18.471Z,21.75
2023-08-17T00:47:42.136Z,21.79
2023-08-17T00:49:04.959Z,21.70
2023-08-17T00:50:30.008Z,22.07
2023-08-17T00:51:52.792Z,22.41
2023-08-17T00:53:17.623Z,22.66
2023-08-17T00:54:40.119Z,22.85
2023-08-17T00:56:03.572Z,22.90
2023-08-17T00:57:25.800Z,22.84
2023-08-17T00:58:49.147Z,22.72
2023-08-17T01:00:17.146Z,22.85
2023-08-17T01:01:42.073Z,23.03
2023-08-17T01:03:05.664Z,23.14
2023-08-17T01:04:28.582Z,23.21
2023-08-17T01:05:50.511Z,23.13
2023-08-17T01:07:13.584Z,22.80
2023-08-17T01:08:36.379Z,22.75
2023-08-17T01:09:59.738Z,22.33
2023-08-17T01:11:29.012Z,21.91
2023-08-17T01:13:02.928Z,21.64
2023-08-17T01:14:32.099Z,21.52
2023-08-17T01:16:00.589Z,21.48
2023-08-17T01:17:28.031Z,21.40
2023-08-17T01:18:53.178Z,21.28
2023-08-17T01:20:18.153Z,21.41
2023-08-17T01:21:45.247Z,21.48
2023-08-17T01:23:08.855Z,21.37
2023-08-17T01:24:31.905Z,21.32
2023-08-17T01:25:54.871Z,21.32
2023-08-17T01:27:18.507Z,21.20
2023-08-17T01:28:40.521Z,21.19
2023-08-17T01:30:03.632Z,21.19
2023-08-17T01:31:32.928Z,21.15
2023-08-17T01:33:00.639Z,21.11
2023-08-17T01:34:26.546Z,21.10
2023-08-17T01:35:57.284Z,21.01
2023-08-17T01:37:23.145Z,21.27
2023-08-17T01:38:48.397Z,21.08
2023-08-17T01:40:14.444Z,21.07
2023-08-17T01:41:38.835Z,21.01
2023-08-17T01:43:01.431Z,21.06
2023-08-17T01:44:26.347Z,20.95
2023-08-17T01:45:48.944Z,20.74
2023-08-17T01:47:12.851Z,20.69
2023-08-17T01:48:34.839Z,20.82
2023-08-17T01:50:00.930Z,20.83
2023-08-17T01:51:22.866Z,20.99
2023-08-17T01:52:45.807Z,20.79
2023-08-17T01:54:09.753Z,20.82
2023-08-17T01:55:32.653Z,20.80
2023-08-17T01:56:54.841Z,20.59
2023-08-17T01:58:17.817Z,20.74
2023-08-17T01:59:39.767Z,20.72
2023-08-17T02:01:03.042Z,20.71
2023-08-17T02:02:25.045Z,20.65
2023-08-17T02:03:47.960Z,20.63
2023-08-17T02:05:10.393Z,20.45
2023-08-17T02:06:33.351Z,19.93
2023-08-17T02:07:55.276Z,19.45
2023-08-17T02:09:19.467Z,19.79
2023-08-17T02:10:41.438Z,20.11
2023-08-17T02:12:04.658Z,20.20
2023-08-17T02:13:28.461Z,19.77
2023-08-17T02:14:50.447Z,19.44
2023-08-17T02:16:13.695Z,19.56
2023-08-17T02:17:35.674Z,19.83
2023-08-17T02:18:58.599Z,20.04
2023-08-17T02:20:20.642Z,20.12
2023-08-17T02:21:43.662Z,20.28
2023-08-17T02:23:05.769Z,20.25
2023-08-17T02:24:30.025Z,20.40
2023-08-17T02:25:52.024Z,20.50
2023-08-17T02:27:14.965Z,20.58
2023-08-17T02:28:36.953Z,20.52
2023-08-17T02:29:59.931Z,20.26
2023-08-17T02:31:22.023Z,20.10
2023-08-17T02:32:45.183Z,20.12
2023-08-17T02:34:07.215Z,20.18
2023-08-17T02:35:30.227Z,20.21
2023-08-17T02:36:52.252Z,19.95
2023-08-17T02:38:15.176Z,19.88
2023-08-17T02:39:38.769Z,19.80
2023-08-17T02:41:01.774Z,19.75
2023-08-17T02:42:23.820Z,19.67
2023-08-17T02:43:46.746Z,19.67
2023-08-17T02:45:10.128Z,19.51
2023-08-17T02:46:33.169Z,19.47
2023-08-17T02:47:55.212Z,19.56
2023-08-17T02:49:18.230Z,19.80
2023-08-17T02:50:40.667Z,19.77
2023-08-17T02:52:03.622Z,19.72
2023-08-17T02:53:25.593Z,19.68
2023-08-17T02:54:49.844Z,19.89
2023-08-17T02:56:13.018Z,19.97
2023-08-17T02:57:35.984Z,20.11
2023-08-17T02:58:58.288Z,20.25
2023-08-17T03:00:21.221Z,20.04
2023-08-17T03:01:45.698Z,20.12
2023-08-17T03:03:08.748Z,20.33
2023-08-17T03:04:31.112Z,20.35
2023-08-17T03:05:54.342Z,20.18
2023-08-17T03:07:16.378Z,20.35
2023-08-17T03:08:39.356Z,20.54
2023-08-17T03:10:02.625Z,20.60
2023-08-17T03:11:25.506Z,20.70
2023-08-17T03:12:47.445Z,20.60
2023-08-17T03:14:10.328Z,20.76
2023-08-17T03:15:32.309Z,20.88
2023-08-17T03:16:55.262Z,20.85
2023-08-17T03:18:17.227Z,21.02
2023-08-17T03:19:40.133Z,20.99
2023-08-17T03:21:02.219Z,21.13
2023-08-17T03:22:25.455Z,21.29
2023-08-17T03:23:47.444Z,21.21
2023-08-17T03:25:12.018Z,20.91
2023-08-17T03:26:34.061Z,20.90
2023-08-17T03:27:56.927Z,20.51
2023-08-17T03:29:18.865Z,19.97
2023-08-17T03:30:41.800Z,19.94
2023-08-17T03:32:03.969Z,19.91
2023-08-17T03:33:26.926Z,19.96
2023-08-17T03:34:51.994Z,20.17
2023-08-17T03:36:16.409Z,20.26
2023-08-17T03:37:38.549Z,20.40
2023-08-17T03:39:01.457Z,20.13
2023-08-17T03:40:24.836Z,20.19
2023-08-17T03:41:47.786Z,20.22
2023-08-17T03:43:09.753Z,20.08
2023-08-17T03:44:32.693Z,19.98
2023-08-17T03:45:55.351Z,19.95
2023-08-17T03:47:18.286Z,19.94
2023-08-17T03:48:40.409Z,20.04
2023-08-17T03:50:04.569Z,20.22
2023-08-17T03:51:26.555Z,20.20
2023-08-17T03:52:49.559Z,20.21
2023-08-17T03:54:13.044Z,20.34
2023-08-17T03:55:37.749Z,20.56
2023-08-17T03:57:01.724Z,20.72
2023-08-17T03:58:32.079Z,20.84
2023-08-17T03:59:56.425Z,20.92
2023-08-17T04:01:22.440Z,20.66
2023-08-17T04:02:46.871Z,19.99
2023-08-17T04:04:14.295Z,19.66
2023-08-17T04:05:39.449Z,19.50
2023-08-17T04:07:02.484Z,19.41
2023-08-17T04:08:24.533Z,19.40
2023-08-17T04:09:48.168Z,19.76
2023-08-17T04:11:11.464Z,20.13
2023-08-17T04:12:35.232Z,20.34
2023-08-17T04:13:57.602Z,20.44
2023-08-17T04:15:20.533Z,20.56
2023-08-17T04:16:42.926Z,20.76
2023-08-17T04:18:06.386Z,20.93
2023-08-17T04:19:28.543Z,20.94
2023-08-17T04:20:55.027Z,20.82
2023-08-17T04:22:17.605Z,20.93
2023-08-17T04:23:40.522Z,21.00
2023-08-17T04:25:02.808Z,20.85
2023-08-17T04:26:27.164Z,20.82
2023-08-17T04:27:49.204Z,21.02
2023-08-17T04:29:15.398Z,21.00
2023-08-17T04:30:40.669Z,21.01
2023-08-17T04:32:03.845Z,20.94
2023-08-17T04:33:25.793Z,20.85
2023-08-17T04:34:49.341Z,20.68
2023-08-17T04:36:11.354Z,20.64
2023-08-17T04:37:34.637Z,20.47
2023-08-17T04:38:56.636Z,20.50
2023-08-17T04:40:23.287Z,20.34
2023-08-17T04:41:46.571Z,20.68
2023-08-17T04:43:12.385Z,20.75
2023-08-17T04:44:34.391Z,20.77
2023-08-17T04:46:03.181Z,20.70
2023-08-17T04:47:25.800Z,20.49
2023-08-17T04:48:51.304Z,20.35
2023-08-17T04:50:17.267Z,20.35
2023-08-17T04:51:42.258Z,20.09
2023-08-17T04:53:06.744Z,19.96
2023-08-17T04:54:32.556Z,20.23
2023-08-17T04:55:54.792Z,20.22
2023-08-17T04:57:24.246Z,20.16
2023-08-17T04:58:46.746Z,20.25
2023-08-17T05:00:29.418Z,20.32
2023-08-17T05:01:53.563Z,20.46
2023-08-17T05:04:56.146Z,20.82
2023-08-17T05:06:23.558Z,20.91
2023-08-17T05:07:52.788Z,21.16
2023-08-17T05:09:27.841Z,21.01
2023-08-17T05:10:50.290Z,21.09
2023-08-17T05:12:16.310Z,21.07
2023-08-17T05:13:39.762Z,21.22
2023-08-17T05:15:02.884Z,20.63
2023-08-17T05:16:24.893Z,20.80
2023-08-17T05:17:58.274Z,21.01
2023-08-17T05:19:20.381Z,21.06
2023-08-17T05:20:43.302Z,21.09
2023-08-17T05:22:05.694Z,21.15
2023-08-17T05:23:28.734Z,21.06
2023-08-17T05:24:53.429Z,21.20
2023-08-17T05:26:18.605Z,21.17
2023-08-17T05:27:41.561Z,20.75
2023-08-17T05:29:05.982Z,21.00
2023-08-17T05:30:28.453Z,21.12
2023-08-17T05:31:51.439Z,21.09
2023-08-17T05:33:13.513Z,21.01
2023-08-17T05:34:36.871Z,21.11
2023-08-17T05:35:59.121Z,21.30
2023-08-17T05:37:22.325Z,21.44
2023-08-17T05:38:44.622Z,21.49
2023-08-17T05:40:09.988Z,21.51
2023-08-17T05:41:32.164Z,21.50
2023-08-17T05:42:55.151Z,21.53
2023-08-17T05:44:18.662Z,21.67
2023-08-17T05:45:41.666Z,21.42
2023-08-17T05:47:04.083Z,21.34
2023-08-17T05:48:27.567Z,21.45
2023-08-17T05:49:49.629Z,21.71
2023-08-17T05:51:12.586Z,21.86
2023-08-17T05:52:34.690Z,21.70
2023-08-17T05:53:57.872Z,21.62
2023-08-17T05:55:19.859Z,21.85
2023-08-17T05:56:45.947Z,21.77
2023-08-17T05:58:07.977Z,21.65
2023-08-17T05:59:32.331Z,21.74
2023-08-17T06:00:54.279Z,21.96
2023-08-17T06:02:17.368Z,22.06
2023-08-17T06:03:39.565Z,22.27
2023-08-17T06:05:02.613Z,22.46
2023-08-17T06:06:24.629Z,22.55
2023-08-17T06:07:47.617Z,22.54
2023-08-17T06:09:09.744Z,22.63
2023-08-17T06:10:32.676Z,22.51
2023-08-17T06:11:54.588Z,22.46
2023-08-17T06:13:17.542Z,22.49
2023-08-17T06:14:41.330Z,22.72
2023-08-17T06:16:04.240Z,22.81
2023-08-17T06:17:26.490Z,22.86
2023-08-17T06:18:49.625Z,22.82
2023-08-17T06:20:13.334Z,22.69
2023-08-17T06:21:36.333Z,22.87
2023-08-17T06:22:59.438Z,22.99
2023-08-17T06:24:24.062Z,22.97
2023-08-17T06:25:46.048Z,22.68
2023-08-17T06:27:09.002Z,22.51
2023-08-17T06:28:30.985Z,22.74
2023-08-17T06:29:55.306Z,22.48
2023-08-17T06:31:17.583Z,22.42
2023-08-17T06:32:40.694Z,22.59
2023-08-17T06:34:02.667Z,22.62
2023-08-17T06:35:25.650Z,22.77
2023-08-17T06:36:58.691Z,22.77
2023-08-17T06:38:21.614Z,23.03
2023-08-17T06:39:43.551Z,23.14
2023-08-17T06:41:06.451Z,23.33
2023-08-17T06:42:28.412Z,23.29
2023-08-17T06:43:51.335Z,23.45
2023-08-17T06:45:19.367Z,23.48
2023-08-17T06:46:42.287Z,23.57
2023-08-17T06:48:04.933Z,23.59
2023-08-17T06:49:28.869Z,23.65
2023-08-17T06:50:50.777Z,23.56
2023-08-17T06:52:13.717Z,23.30
2023-08-17T06:53:35.684Z,23.31
2023-08-17T06:54:58.628Z,23.44
2023-08-17T06:56:21.815Z,23.35
2023-08-17T06:57:43.803Z,23.51
2023-08-17T06:59:06.700Z,23.50
2023-08-17T07:00:31.079Z,23.58
2023-08-17T07:01:53.473Z,23.57
2023-08-17T07:03:17.332Z,23.72
2023-08-17T07:04:39.332Z,23.70
2023-08-17T07:06:02.280Z,23.54
2023-08-17T07:07:24.424Z,23.60
2023-08-17T07:08:47.802Z,23.60
2023-08-17T07:10:11.465Z,23.66
2023-08-17T07:11:34.744Z,23.63
2023-08-17T07:12:56.702Z,23.55
2023-08-17T07:14:21.793Z,23.43
2023-08-17T07:15:46.316Z,23.30
2023-08-17T07:17:09.246Z,23.16
2023-08-17T07:18:32.295Z,23.27
2023-08-17T07:20:14.654Z,23.32
2023-08-17T07:21:37.397Z,23.40
2023-08-17T07:22:59.434Z,23.62
2023-08-17T07:24:22.330Z,23.71
2023-08-17T07:25:45.311Z,23.72
2023-08-17T07:27:08.344Z,23.77
2023-08-17T07:28:30.492Z,23.92
2023-08-17T07:29:54.415Z,24.08
2023-08-17T07:31:17.765Z,23.59
2023-08-17T07:32:40.999Z,23.26
2023-08-17T07:34:03.174Z,23.32
2023-08-17T07:35:26.213Z,23.06
2023-08-17T07:36:48.163Z,23.05
2023-08-17T07:38:11.127Z,23.10
2023-08-17T07:39:33.549Z,23.19
2023-08-17T07:40:56.975Z,23.06
2023-08-17T07:42:18.968Z,23.29
2023-08-17T07:43:41.908Z,23.40
2023-08-17T07:45:07.325Z,23.39
2023-08-17T07:46:31.732Z,23.48
2023-08-17T07:47:54.005Z,23.33
2023-08-17T07:49:30.285Z,23.60
2023-08-17T07:50:54.775Z,23.54
2023-08-17T07:52:18.306Z,23.41
2023-08-17T07:53:40.461Z,23.27
2023-08-17T07:55:04.545Z,23.61
2023-08-17T07:56:26.613Z,23.66
2023-08-17T07:57:49.791Z,23.52
2023-08-17T07:59:12.147Z,23.45
2023-08-17T08:00:35.038Z,23.68
2023-08-17T08:01:58.454Z,23.64
2023-08-17T08:03:21.481Z,23.99
2023-08-17T08:04:43.476Z,24.14
2023-08-17T08:06:06.505Z,24.18
2023-08-17T08:07:28.635Z,24.18
2023-08-17T08:08:52.026Z,23.98
2023-08-17T08:10:14.467Z,24.01
2023-08-17T08:11:37.719Z,24.33
2023-08-17T08:12:59.893Z,24.70
2023-08-17T08:14:23.210Z,24.91
2023-08-17T08:15:45.273Z,24.76
2023-08-17T08:17:09.730Z,24.89
2023-08-17T08:18:31.994Z,24.69
2023-08-17T08:19:55.584Z,24.53
2023-08-17T08:21:17.693Z,24.62
2023-08-17T08:22:40.637Z,24.91
2023-08-17T08:24:02.934Z,24.81
2023-08-17T08:25:26.313Z,24.99
2023-08-17T08:26:48.273Z,25.16
2023-08-17T08:28:11.516Z,25.14
2023-08-17T08:29:34.228Z,25.11
2023-08-17T08:30:57.148Z,24.97
2023-08-17T08:32:24.315Z,25.13
2023-08-17T08:33:47.264Z,25.25
2023-08-17T08:35:09.455Z,24.89
2023-08-17T08:36:32.412Z,24.89
2023-08-17T08:37:56.623Z,24.61
2023-08-17T08:39:19.629Z,24.22
2023-08-17T08:40:41.998Z,24.32
2023-08-17T08:42:06.024Z,24.32
2023-08-17T08:43:28.245Z,24.58
2023-08-17T08:44:52.281Z,24.71
2023-08-17T08:46:18.061Z,25.03
2023-08-17T08:47:46.825Z,24.56
2023-08-17T08:49:11.681Z,24.52
2023-08-17T08:50:38.250Z,24.60
2023-08-17T08:52:02.061Z,24.67
2023-08-17T08:53:36.269Z,24.10
2023-08-17T08:54:59.759Z,23.57
2023-08-17T08:56:25.768Z,24.06
2023-08-17T08:57:51.798Z,24.22
2023-08-17T08:59:15.699Z,23.80
2023-08-17T09:00:39.679Z,23.65
2023-08-17T09:02:02.990Z,24.03
2023-08-17T09:03:27.933Z,24.07
2023-08-17T09:04:51.448Z,24.41
2023-08-17T09:06:15.689Z,24.71
2023-08-17T09:07:38.766Z,24.86
2023-08-17T09:09:03.961Z,24.78
2023-08-17T09:10:26.038Z,24.82
2023-08-17T09:13:27.633Z,25.31
2023-08-17T09:14:49.877Z,25.49
2023-08-17T09:16:13.068Z,25.73
2023-08-17T09:17:35.461Z,25.22
2023-08-17T09:19:00.267Z,25.25
2023-08-17T09:20:38.111Z,25.06
2023-08-17T09:22:01.230Z,25.24
2023-08-17T09:23:23.455Z,25.69
2023-08-17T09:24:46.583Z,25.64
2023-08-17T09:26:12.878Z,25.87
2023-08-17T09:27:35.277Z,25.45
2023-08-17T09:29:00.175Z,24.60
2023-08-17T09:30:22.212Z,24.67
2023-08-17T09:31:49.474Z,24.31
2023-08-17T09:33:11.489Z,24.82
2023-08-17T09:34:36.226Z,24.71
2023-08-17T09:36:00.547Z,25.07
2023-08-17T09:37:27.802Z,24.92
2023-08-17T09:38:52.951Z,25.01
2023-08-17T09:40:22.234Z,25.24
2023-08-17T09:41:45.412Z,25.56
2023-08-17T09:43:08.927Z,25.82
2023-08-17T09:44:35.169Z,25.84
2023-08-17T09:45:58.391Z,25.74
2023-08-17T09:47:22.452Z,25.53
2023-08-17T09:48:46.452Z,25.29
2023-08-17T09:50:11.405Z,25.83
2023-08-17T09:51:34.529Z,26.32
2023-08-17T09:53:00.703Z,26.42
2023-08-17T09:54:27.064Z,26.39
2023-08-17T09:55:49.340Z,26.38
2023-08-17T09:57:23.378Z,26.63
2023-08-17T09:59:04.271Z,26.61
2023-08-17T10:00:28.262Z,26.62
2023-08-17T10:03:20.379Z,26.86
2023-08-17T10:04:47.282Z,26.71
2023-08-17T10:06:13.379Z,26.07
2023-08-17T10:07:49.794Z,26.62
2023-08-17T10:09:18.854Z,26.85
2023-08-17T10:10:45.164Z,26.82
2023-08-17T10:12:13.971Z,26.87
2023-08-17T10:13:41.939Z,27.01
2023-08-17T10:15:09.329Z,27.39
2023-08-17T10:16:44.057Z,27.49
2023-08-17T10:18:15.679Z,27.38
2023-08-17T10:19:46.014Z,27.34
2023-08-17T10:21:14.940Z,27.65
2023-08-17T10:22:46.898Z,27.80
2023-08-17T10:24:51.562Z,27.61
2023-08-17T10:26:54.940Z,27.29
2023-08-17T10:28:19.656Z,27.22
2023-08-17T10:29:43.361Z,27.90
2023-08-17T10:31:11.555Z,28.08
2023-08-17T10:32:34.058Z,28.70
2023-08-17T10:33:58.313Z,28.41
2023-08-17T10:35:20.849Z,28.63
2023-08-17T10:36:46.628Z,29.89
2023-08-17T10:38:11.323Z,31.02
2023-08-17T10:39:35.861Z,32.34
2023-08-17T10:41:17.721Z,32.72
2023-08-17T10:42:41.326Z,32.30
2023-08-17T10:44:03.573Z,32.49
2023-08-17T10:45:32.107Z,32.01
2023-08-17T10:46:54.598Z,31.61
2023-08-17T10:48:29.108Z,31.24
2023-08-17T10:49:52.372Z,30.45
2023-08-17T10:51:15.532Z,29.85
2023-08-17T10:54:11.790Z,31.81
2023-08-17T10:55:37.625Z,32.74
2023-08-17T10:57:00.997Z,32.71
2023-08-17T10:58:22.931Z,31.99
2023-08-17T10:59:46.043Z,30.80
2023-08-17T11:01:08.391Z,31.76
2023-08-17T11:02:40.041Z,31.68
2023-08-17T11:04:17.008Z,31.71
2023-08-17T11:05:44.006Z,31.63
2023-08-17T11:07:17.209Z,31.40
2023-08-17T11:08:53.070Z,30.91
2023-08-17T11:10:34.071Z,31.56
2023-08-17T11:12:12.290Z,32.65
2023-08-17T11:14:13.115Z,34.32
2023-08-17T11:16:13.749Z,34.55
2023-08-17T11:17:54.670Z,34.80
2023-08-17T11:19:33.208Z,35.44
2023-08-17T11:21:10.061Z,35.25
2023-08-17T11:23:00.034Z,35.39
2023-08-17T11:24:30.712Z,34.39
2023-08-17T11:25:53.632Z,35.44
2023-08-17T11:27:28.681Z,35.22
2023-08-17T11:29:01.714Z,37.14
2023-08-17T11:32:37.765Z,36.83
2023-08-17T11:34:06.986Z,37.91
2023-08-17T11:35:29.102Z,39.01
2023-08-17T11:36:52.722Z,39.37
2023-08-17T11:39:59.879Z,39.37
2023-08-17T11:41:33.526Z,39.88
2023-08-17T11:43:12.711Z,39.47
2023-08-17T11:44:43.380Z,37.28
2023-08-17T11:46:11.948Z,36.93
2023-08-17T11:48:01.208Z,35.57
2023-08-17T11:49:44.224Z,35.08
2023-08-17T11:51:19.789Z,36.36
2023-08-17T11:53:00.700Z,37.75
2023-08-17T11:54:34.056Z,39.14
2023-08-17T11:56:15.117Z,40.09
2023-08-17T11:57:53.101Z,38.05
2023-08-17T11:59:31.939Z,39.18
2023-08-17T12:01:20.072Z,38.15
2023-08-17T12:03:01.763Z,37.44
2023-08-17T12:04:40.617Z,36.23
2023-08-17T12:06:18.648Z,38.31
2023-08-17T12:08:06.233Z,39.24
2023-08-17T12:11:51.284Z,40.23
2023-08-17T12:13:53.531Z,35.14
2023-08-17T12:15:17.295Z,36.16
2023-08-17T12:18:46.983Z,36.44
2023-08-17T12:20:15.373Z,34.72
2023-08-17T12:21:59.503Z,34.23
2023-08-17T12:23:28.171Z,35.69
2023-08-17T12:25:18.548Z,37.39
2023-08-17T12:27:17.288Z,38.98
2023-08-17T12:28:55.756Z,37.48
2023-08-17T12:30:47.349Z,38.14
2023-08-17T12:38:43.810Z,40.22
2023-08-17T12:40:49.221Z,38.73
2023-08-17T12:42:20.819Z,39.39
2023-08-17T12:43:48.720Z,40.11
2023-08-17T12:47:10.242Z,39.78
2023-08-17T12:48:49.850Z,39.91
2023-08-17T12:50:13.892Z,40.53
2023-08-17T12:52:00.631Z,39.17
2023-08-17T12:53:41.939Z,37.15
2023-08-17T12:55:15.996Z,35.56
2023-08-17T12:56:58.917Z,34.14
2023-08-17T13:02:55.257Z,36.15
2023-08-17T13:06:22.133Z,36.11
2023-08-17T13:08:00.156Z,36.38
2023-08-17T13:13:17.544Z,35.61
2023-08-17T13:15:04.768Z,35.44
2023-08-17T13:18:16.985Z,34.97
2023-08-17T13:19:50.982Z,34.56
2023-08-17T13:21:26.000Z,35.13
2023-08-17T13:23:11.690Z,35.80
2023-08-17T13:24:43.882Z,35.87
2023-08-17T13:26:16.546Z,36.43
2023-08-17T13:27:46.786Z,36.85
2023-08-17T13:29:18.361Z,37.17
2023-08-17T13:33:07.949Z,34.98
2023-08-17T13:36:45.253Z,35.71
2023-08-17T13:38:27.420Z,35.19
2023-08-17T13:40:12.412Z,35.93
2023-08-17T13:41:46.242Z,35.42
2023-08-17T13:43:24.038Z,35.19
2023-08-17T13:45:33.547Z,34.30
2023-08-17T13:48:49.587Z,33.86
2023-08-17T13:50:28.539Z,33.76
2023-08-17T13:52:01.236Z,33.13
2023-08-17T13:53:33.994Z,32.90
2023-08-17T13:55:10.378Z,33.08
2023-08-17T13:56:36.258Z,32.98
2023-08-17T13:57:59.389Z,32.63
2023-08-17T13:59:26.519Z,32.77
2023-08-17T14:00:50.283Z,32.93
2023-08-17T14:02:30.917Z,32.77
2023-08-17T14:03:54.224Z,32.61
2023-08-17T14:05:20.040Z,31.99
2023-08-17T14:06:46.206Z,31.03
2023-08-17T14:08:12.368Z,31.36
2023-08-17T14:09:43.288Z,30.85
2023-08-17T14:11:13.151Z,30.23
2023-08-17T14:12:40.178Z,30.25
2023-08-17T14:14:10.057Z,30.14
2023-08-17T14:15:43.929Z,30.05
2023-08-17T14:17:09.186Z,30.15
2023-08-17T14:18:42.445Z,30.41
2023-08-17T14:20:14.025Z,30.11
2023-08-17T14:21:38.808Z,29.94
2023-08-17T14:23:10.951Z,29.72
2023-08-17T14:24:38.792Z,29.20
2023-08-17T14:26:30.714Z,29.04
2023-08-17T14:28:04.240Z,29.18
2023-08-17T14:29:28.244Z,29.14
2023-08-17T14:30:57.982Z,29.17
2023-08-17T14:32:26.073Z,29.26
2023-08-17T14:34:09.396Z,29.23
2023-08-17T14:35:34.717Z,29.13
2023-08-17T14:37:03.449Z,29.17
2023-08-17T14:38:31.574Z,29.08
2023-08-17T14:40:19.804Z,29.47
2023-08-17T14:41:57.145Z,29.45
2023-08-17T14:43:37.587Z,28.97
2023-08-17T14:45:10.780Z,28.43
2023-08-17T14:46:47.900Z,28.83
2023-08-17T14:48:26.841Z,29.00
2023-08-17T14:50:00.322Z,29.06
2023-08-17T14:51:31.471Z,28.98
2023-08-17T14:53:03.799Z,28.85
2023-08-17T14:54:30.841Z,28.64
2023-08-17T14:55:56.262Z,28.49
2023-08-17T14:57:26.590Z,28.66
2023-08-17T14:58:51.500Z,28.89
2023-08-17T15:00:20.109Z,28.82
2023-08-17T15:01:42.343Z,28.49
2023-08-17T15:03:06.304Z,28.67
2023-08-17T15:04:28.578Z,28.74
2023-08-17T15:05:53.921Z,28.56
2023-08-17T15:07:17.595Z,28.24
2023-08-17T15:08:51.963Z,28.10
2023-08-17T15:10:16.702Z,28.14
2023-08-17T15:11:45.399Z,28.13
2023-08-17T15:13:11.276Z,28.20
2023-08-17T15:14:35.075Z,27.92
2023-08-17T15:15:57.792Z,28.01
2023-08-17T15:17:20.858Z,28.17
2023-08-17T15:18:43.039Z,28.14
2023-08-17T15:20:07.361Z,28.17
2023-08-17T15:21:30.741Z,28.26
2023-08-17T15:22:54.093Z,28.17
2023-08-17T15:24:16.146Z,28.20
2023-08-17T15:25:44.889Z,28.12
2023-08-17T15:27:09.206Z,27.90
2023-08-17T15:28:33.214Z,27.95
2023-08-17T15:29:57.721Z,27.91
2023-08-17T15:31:21.454Z,28.13
2023-08-17T15:32:53.377Z,27.66
2023-08-17T15:34:21.370Z,27.70
2023-08-17T15:35:43.454Z,27.69
2023-08-17T15:37:08.546Z,27.89
2023-08-17T15:38:30.921Z,27.93
2023-08-17T15:39:54.414Z,27.98
2023-08-17T15:41:16.523Z,28.19
2023-08-17T15:42:39.621Z,28.16
2023-08-17T15:44:01.873Z,27.84
2023-08-17T15:45:25.231Z,28.03
2023-08-17T15:46:47.515Z,28.02
2023-08-17T15:48:10.800Z,27.89
2023-08-17T15:49:32.976Z,28.01
2023-08-17T15:50:57.174Z,27.60
2023-08-17T15:52:22.328Z,27.70
2023-08-17T15:53:47.603Z,27.66
2023-08-17T15:55:09.984Z,27.78
2023-08-17T15:56:33.372Z,27.77
2023-08-17T15:57:55.720Z,27.78
2023-08-17T15:59:21.815Z,27.81
2023-08-17T16:00:47.709Z,27.92
2023-08-17T16:02:11.106Z,27.93
2023-08-17T16:03:33.491Z,27.87
2023-08-17T16:04:56.596Z,27.93
2023-08-17T16:06:19.543Z,28.06
2023-08-17T16:07:48.641Z,27.79
2023-08-17T16:09:18.381Z,27.56
2023-08-17T16:10:50.639Z,27.53
2023-08-17T16:12:16.228Z,27.65
2023-08-17T16:13:45.766Z,27.47
2023-08-17T16:15:12.825Z,27.41
2023-08-17T16:16:34.912Z,27.04
2023-08-17T16:19:26.619Z,27.20
2023-08-17T16:20:50.101Z,27.10
2023-08-17T16:22:17.164Z,26.92
2023-08-17T16:23:43.772Z,27.17
2023-08-17T16:25:07.339Z,27.12
2023-08-17T16:26:34.448Z,27.29
2023-08-17T16:27:57.111Z,27.41
2023-08-17T16:29:20.262Z,27.57
2023-08-17T16:30:42.369Z,27.44
2023-08-17T16:32:09.457Z,27.40
2023-08-17T16:33:31.852Z,27.41
2023-08-17T16:34:54.885Z,27.20
2023-08-17T16:36:18.549Z,27.24
2023-08-17T16:37:41.192Z,27.26
2023-08-17T16:39:17.215Z,27.27
2023-08-17T16:40:39.373Z,27.15
2023-08-17T16:42:02.601Z,27.36
2023-08-17T16:43:24.683Z,27.51
2023-08-17T16:44:47.897Z,27.44
2023-08-17T16:47:00.744Z,27.01
2023-08-17T16:49:46.376Z,25.19
2023-08-17T16:51:09.427Z,24.93
2023-08-17T16:52:31.424Z,24.48
2023-08-17T16:53:54.967Z,24.65
2023-08-17T16:55:18.719Z,24.70
2023-08-17T16:56:53.873Z,24.69
2023-08-17T16:58:29.479Z,24.63
2023-08-17T16:59:54.670Z,24.70
2023-08-17T17:01:16.770Z,24.77
2023-08-17T17:02:39.805Z,24.27
2023-08-17T17:04:02.149Z,24.12
2023-08-17T17:05:25.401Z,23.65
2023-08-17T17:06:47.476Z,23.51
2023-08-17T17:08:10.512Z,23.40
2023-08-17T17:09:32.578Z,23.03
2023-08-17T17:10:56.831Z,23.22
2023-08-17T17:12:18.835Z,23.04
2023-08-17T17:13:41.941Z,22.98
2023-08-17T17:15:05.384Z,23.25
2023-08-17T17:16:28.332Z,23.51
2023-08-17T17:17:50.472Z,23.44
2023-08-17T17:19:13.445Z,23.44
2023-08-17T17:20:35.541Z,23.35
2023-08-17T17:21:58.543Z,22.97
2023-08-17T17:23:20.505Z,23.09
2023-08-17T17:24:46.494Z,23.35
2023-08-17T17:26:10.036Z,23.59
2023-08-17T17:27:33.396Z,23.24
2023-08-17T17:28:55.389Z,23.42
2023-08-17T17:30:18.369Z,23.40
2023-08-17T17:31:40.288Z,23.62
2023-08-17T17:33:03.314Z,23.38
2023-08-17T17:34:25.434Z,23.25
2023-08-17T17:35:48.355Z,23.57
2023-08-17T17:37:10.367Z,23.43
2023-08-17T17:38:33.266Z,23.51
2023-08-17T17:39:55.427Z,23.78
2023-08-17T17:41:19.792Z,24.06
2023-08-17T17:42:41.799Z,24.24
2023-08-17T17:44:05.221Z,24.29
2023-08-17T17:45:27.156Z,24.34
2023-08-17T17:46:50.168Z,24.35
2023-08-17T17:48:13.259Z,24.28
2023-08-17T17:49:36.186Z,24.37
2023-08-17T17:50:58.256Z,24.18
2023-08-17T17:52:21.174Z,24.25
2023-08-17T17:53:43.148Z,24.18
2023-08-17T17:55:06.951Z,24.37
2023-08-17T17:56:40.102Z,24.56
2023-08-17T17:58:03.185Z,24.60
2023-08-17T17:59:25.183Z,24.68
2023-08-17T18:00:48.701Z,24.83
2023-08-17T18:02:10.708Z,24.61
2023-08-17T18:03:33.658Z,24.44
2023-08-17T18:04:55.832Z,23.54
2023-08-17T18:06:20.892Z,22.93
2023-08-17T18:07:43.055Z,22.71
2023-08-17T18:09:06.948Z,22.94
2023-08-17T18:10:29.216Z,22.86
2023-08-17T18:11:53.531Z,23.05
2023-08-17T18:13:15.525Z,23.40
2023-08-17T18:14:40.010Z,23.66
2023-08-17T18:16:01.988Z,23.71
2023-08-17T18:17:25.036Z,23.66
2023-08-17T18:18:49.826Z,23.71
2023-08-17T18:20:15.375Z,23.81
2023-08-17T18:21:38.314Z,23.94
2023-08-17T18:23:00.263Z,24.10
2023-08-17T18:24:25.986Z,24.02
2023-08-17T18:25:48.713Z,24.23
2023-08-17T18:27:13.047Z,24.19
2023-08-17T18:28:35.056Z,24.33
2023-08-17T18:29:57.979Z,24.44
2023-08-17T18:31:19.963Z,24.35
2023-08-17T18:32:43.024Z,24.36
2023-08-17T18:34:05.072Z,24.31
2023-08-17T18:35:28.139Z,23.46
2023-08-17T18:36:50.320Z,23.08
2023-08-17T18:38:13.415Z,23.23
2023-08-17T18:39:35.318Z,22.92
2023-08-17T18:41:09.026Z,23.29
2023-08-17T18:42:32.469Z,23.59
2023-08-17T18:43:55.399Z,23.77
2023-08-17T18:45:18.922Z,23.81
2023-08-17T18:46:42.071Z,23.84
2023-08-17T18:48:05.230Z,24.00
2023-08-17T18:49:28.171Z,23.94
2023-08-17T18:50:50.091Z,24.04
2023-08-17T18:52:13.005Z,23.92
2023-08-17T18:53:34.986Z,23.99
2023-08-17T18:55:01.824Z,24.17
2023-08-17T18:56:23.823Z,24.27
2023-08-17T18:57:50.498Z,24.28
2023-08-17T18:59:12.468Z,24.37
2023-08-17T19:00:35.485Z,24.48
2023-08-17T19:01:57.425Z,24.54
2023-08-17T19:03:20.877Z,24.53
2023-08-17T19:04:43.000Z,24.06
2023-08-17T19:06:06.069Z,23.76
2023-08-17T19:07:29.222Z,23.50
2023-08-17T19:08:52.476Z,23.66
2023-08-17T19:10:14.509Z,23.42
2023-08-17T19:11:37.502Z,23.60